createdAt,value
2023-01-09T13:59:27.457Z,97.37
2023-01-09T14:01:54.905Z,97.17
2023-01-09T14:04:21.878Z,97.11
2023-01-09T14:07:16.531Z,96.82
2023-01-09T14:09:47.473Z,96.59
2023-01-09T14:12:14.697Z,96.56
2023-01-09T14:14:44.376Z,96.76
2023-01-09T14:17:22.745Z,96.50
2023-01-09T14:19:54.493Z,96.48
2023-01-09T14:22:29.377Z,96.61
2023-01-09T14:25:02.641Z,96.58
2023-01-09T14:28:25.377Z,96.56
2023-01-09T14:30:53.708Z,96.40
2023-01-09T14:33:27.889Z,96.37
2023-01-09T14:36:34.743Z,96.56
2023-01-09T14:39:09.447Z,96.38
2023-01-09T14:42:09.535Z,96.37
2023-01-09T14:45:29.791Z,96.40
2023-01-09T14:48:16.045Z,96.59
2023-01-09T14:51:17.842Z,96.33
2023-01-09T14:53:53.089Z,96.47
2023-01-09T14:56:55.485Z,96.53
2023-01-09T14:59:22.351Z,96.55
2023-01-09T15:01:51.083Z,96.47
2023-01-09T15:04:21.545Z,96.40
2023-01-09T15:06:48.922Z,96.28
2023-01-09T15:09:22.206Z,96.47
2023-01-09T15:11:49.370Z,96.37
2023-01-09T15:14:36.113Z,96.53
2023-01-09T15:17:03.722Z,96.52
2023-01-09T15:19:32.919Z,96.65
2023-01-09T15:22:02.128Z,96.43
2023-01-09T15:24:31.783Z,96.39
2023-01-09T15:27:13.962Z,96.27
2023-01-09T15:29:43.579Z,96.25
2023-01-09T15:32:19.999Z,96.26
2023-01-09T15:34:57.435Z,96.43
2023-01-09T15:37:38.979Z,96.17
2023-01-09T15:40:40.925Z,95.94
2023-01-09T15:43:14.121Z,95.63
2023-01-09T15:45:51.459Z,95.50
2023-01-09T15:48:26.757Z,95.43
2023-01-09T15:50:57.561Z,95.53
2023-01-09T15:53:28.009Z,95.31
2023-01-09T15:56:05.167Z,94.89
2023-01-09T15:58:34.702Z,94.78
2023-01-09T16:01:08.014Z,94.75
2023-01-09T16:03:53.127Z,94.74
2023-01-09T16:06:41.187Z,94.47
2023-01-09T16:09:28.454Z,94.06
2023-01-09T16:12:04.527Z,94.11
